Time;durP1;ratioP1;P1;durP2;ratioP2;P2;SDS_P1;SDS_P2;PMS_P1;PMS_P2;Temp;Humidity;BMP_temperature;BMP_pressure;BME280_temperature;BME280_humidity;BME280_pressure;Samples;Min_cycle;Max_cycle;Signal;HPM_P1;HPM_P2
2022/01/11 00:01:52;;;;;;;39.50;16.35;;;;;;;;;;6192481;28;20038;-68
2022/01/11 00:04:53;;;;;;;31.85;14.68;;;;;;;;;;6196475;28;20053;-66
2022/01/11 00:07:54;;;;;;;33.72;13.80;;;;;;;;;;6192805;28;20101;-67
2022/01/11 00:11:03;;;;;;;37.17;13.68;;;;;;;;;;6195537;28;20050;-68
2022/01/11 00:14:03;;;;;;;27.38;12.35;;;;;;;;;;6192835;28;20061;-65
2022/01/11 00:17:04;;;;;;;30.45;13.15;;;;;;;;;;6194181;28;20073;-65
2022/01/11 00:20:06;;;;;;;31.20;11.85;;;;;;;;;;6194230;28;20764;-67
2022/01/11 00:26:09;;;;;;;29.55;11.75;;;;;;;;;;6194539;28;22810;-67
2022/01/11 00:29:10;;;;;;;26.85;11.65;;;;;;;;;;6194457;28;20187;-67
2022/01/11 00:32:15;;;;;;;37.45;14.40;;;;;;;;;;6195518;28;20129;-64
2022/01/11 00:35:17;;;;;;;30.42;12.60;;;;;;;;;;6196296;28;20053;-64
2022/01/11 00:38:18;;;;;;;;;;;;;;;;;;6193761;28;20046;-67
2022/01/11 00:41:18;;;;;;;26.55;11.45;;;;;;;;;;6193059;28;19937;-68
2022/01/11 00:44:19;;;;;;;29.48;10.68;;;;;;;;;;6194557;28;20104;-68
2022/01/11 00:47:20;;;;;;;25.83;11.07;;;;;;;;;;6194528;28;20580;-68
2022/01/11 00:50:22;;;;;;;27.52;11.88;;;;;;;;;;6195969;28;20078;-67
2022/01/11 00:53:23;;;;;;;32.22;14.07;;;;;;;;;;6196418;28;20042;-66
2022/01/11 00:56:24;;;;;;;29.80;13.13;;;;;;;;;;6194576;28;20074;-65
2022/01/11 00:59:24;;;;;;;33.45;14.15;;;;;;;;;;6196618;28;20724;-66
2022/01/11 01:02:25;;;;;;;34.17;12.93;;;;;;;;;;6196404;28;20131;-69
2022/01/11 01:05:27;;;;;;;37.72;13.77;;;;;;;;;;6195781;28;20061;-68
2022/01/11 01:08:28;;;;;;;27.42;12.35;;;;;;;;;;6194853;28;20089;-69
2022/01/11 01:11:29;;;;;;;30.52;12.60;;;;;;;;;;6195680;28;20054;-65
2022/01/11 01:14:30;;;;;;;30.88;13.35;;;;;;;;;;6194230;28;20058;-66
2022/01/11 01:17:30;;;;;;;32.42;13.23;;;;;;;;;;6193062;28;20050;-66
2022/01/11 01:20:32;;;;;;;32.50;13.15;;;;;;;;;;6196444;28;20062;-66
2022/01/11 01:23:34;;;;;;;29.40;13.07;;;;;;;;;;6196140;28;20065;-66
2022/01/11 01:26:35;;;;;;;29.13;13.32;;;;;;;;;;6195949;28;20057;-66
2022/01/11 01:29:35;;;;;;;27.25;12.93;;;;;;;;;;6192505;28;20108;-66
2022/01/11 01:32:39;;;;;;;30.27;13.32;;;;;;;;;;6190634;28;20050;-66
2022/01/11 01:35:42;;;;;;;30.95;13.00;;;;;;;;;;6189739;28;20504;-67
2022/01/11 01:38:43;;;;;;;33.95;12.65;;;;;;;;;;6196177;28;20080;-66
2022/01/11 01:41:46;;;;;;;30.77;12.70;;;;;;;;;;6190841;28;20054;-66
2022/01/11 01:44:48;;;;;;;28.27;12.15;;;;;;;;;;6191500;28;20049;-67
2022/01/11 01:47:56;;;;;;;30.95;13.20;;;;;;;;;;6190813;28;20057;-66
2022/01/11 01:50:57;;;;;;;30.50;12.45;;;;;;;;;;6195787;28;20176;-64
2022/01/11 01:53:58;;;;;;;34.28;13.35;;;;;;;;;;6191994;28;20050;-69
2022/01/11 01:57:01;;;;;;;27.65;11.98;;;;;;;;;;6193132;28;20054;-66
2022/01/11 02:00:11;;;;;;;26.73;11.43;;;;;;;;;;6194281;28;20580;-67
2022/01/11 02:03:14;;;;;;;26.85;11.80;;;;;;;;;;6196173;28;20528;-67
2022/01/11 02:06:19;;;;;;;28.30;11.60;;;;;;;;;;6194234;28;21431;-63
2022/01/11 02:09:20;;;;;;;24.88;11.25;;;;;;;;;;6196789;28;20208;-63
2022/01/11 02:12:21;;;;;;;25.77;11.65;;;;;;;;;;6194676;28;20517;-67
2022/01/11 02:15:22;;;;;;;29.23;12.68;;;;;;;;;;6196685;28;20096;-67
2022/01/11 02:18:25;;;;;;;27.63;11.85;;;;;;;;;;6195523;28;20038;-67
2022/01/11 02:21:27;;;;;;;29.20;11.88;;;;;;;;;;6196957;28;20138;-68
2022/01/11 02:24:32;;;;;;;31.50;12.50;;;;;;;;;;6194503;28;20136;-66
2022/01/11 02:27:32;;;;;;;32.00;13.13;;;;;;;;;;6189789;28;20061;-67
2022/01/11 02:30:34;;;;;;;29.65;12.15;;;;;;;;;;6192432;28;20057;-66
2022/01/11 02:33:41;;;;;;;29.90;12.25;;;;;;;;;;6192869;28;20132;-67
2022/01/11 02:36:42;;;;;;;26.88;12.40;;;;;;;;;;6201893;28;20042;-66
2022/01/11 02:39:47;;;;;;;30.45;13.65;;;;;;;;;;6190341;28;20627;-67
2022/01/11 02:42:48;;;;;;;30.42;12.25;;;;;;;;;;6189533;28;20049;-68
2022/01/11 02:45:48;;;;;;;30.80;12.02;;;;;;;;;;6188837;28;20165;-68
2022/01/11 02:48:51;;;;;;;31.67;12.48;;;;;;;;;;6190673;28;20734;-69
2022/01/11 02:51:53;;;;;;;27.17;11.45;;;;;;;;;;6195853;28;20140;-66
2022/01/11 02:54:54;;;;;;;29.43;13.10;;;;;;;;;;6196658;28;20068;-66
2022/01/11 02:57:55;;;;;;;33.00;13.35;;;;;;;;;;6194644;28;20799;-66
2022/01/11 03:00:56;;;;;;;30.65;13.02;;;;;;;;;;6198252;28;21053;-68
2022/01/11 03:03:58;;;;;;;28.92;12.38;;;;;;;;;;6196988;28;20492;-67
2022/01/11 03:06:58;;;;;;;29.05;13.20;;;;;;;;;;6195353;28;20408;-68
2022/01/11 03:10:12;;;;;;;34.47;12.98;;;;;;;;;;6193348;28;20132;-68
2022/01/11 03:13:16;;;;;;;30.42;12.93;;;;;;;;;;6197235;28;20115;-68
2022/01/11 03:16:17;;;;;;;27.52;11.40;;;;;;;;;;6193762;28;20584;-68
2022/01/11 03:19:18;;;;;;;29.23;13.10;;;;;;;;;;6197289;28;20065;-67
2022/01/11 03:22:20;;;;;;;33.33;12.85;;;;;;;;;;6196526;28;20606;-68
2022/01/11 03:25:20;;;;;;;40.10;14.57;;;;;;;;;;6195126;28;20109;-66
2022/01/11 03:28:23;;;;;;;36.25;13.95;;;;;;;;;;6198064;28;20089;-66
2022/01/11 03:31:24;;;;;;;;;;;;;;;;;;6198344;28;20054;-66
2022/01/11 03:34:25;;;;;;;21.95;10.18;;;;;;;;;;6195147;28;19970;-65
2022/01/11 03:37:25;;;;;;;24.35;9.52;;;;;;;;;;6195818;28;20046;-66
2022/01/11 03:40:27;;;;;;;24.35;10.10;;;;;;;;;;6198348;28;20144;-65
2022/01/11 03:43:29;;;;;;;24.58;11.07;;;;;;;;;;6194055;28;20054;-68
2022/01/11 03:46:30;;;;;;;34.10;12.45;;;;;;;;;;6192872;28;20487;-67
2022/01/11 03:49:31;;;;;;;25.25;9.82;;;;;;;;;;6197067;28;20081;-68
2022/01/11 03:52:32;;;;;;;29.13;12.88;;;;;;;;;;6191823;28;20148;-67
2022/01/11 03:55:46;;;;;;;31.80;12.57;;;;;;;;;;6189956;28;20058;-66
2022/01/11 03:58:50;;;;;;;30.92;12.48;;;;;;;;;;6189300;28;20133;-68
2022/01/11 04:01:51;;;;;;;27.77;11.40;;;;;;;;;;6188614;28;20034;-67
2022/01/11 04:04:53;;;;;;;37.08;13.27;;;;;;;;;;6192717;28;20081;-67
2022/01/11 04:07:53;;;;;;;28.65;13.10;;;;;;;;;;6189678;28;20046;-66
2022/01/11 04:10:54;;;;;;;35.67;14.02;;;;;;;;;;6193514;28;20046;-67
2022/01/11 04:13:54;;;;;;;24.88;11.02;;;;;;;;;;6189892;28;20528;-68
2022/01/11 04:16:55;;;;;;;22.98;10.25;;;;;;;;;;6187078;28;20474;-66
2022/01/11 04:19:56;;;;;;;25.17;10.00;;;;;;;;;;6188775;28;20046;-65
2022/01/11 04:22:57;;;;;;;27.20;10.95;;;;;;;;;;6190846;28;20116;-69
2022/01/11 04:25:58;;;;;;;21.95;9.60;;;;;;;;;;6188289;28;21017;-67
2022/01/11 04:28:58;;;;;;;23.02;10.45;;;;;;;;;;6188427;28;20062;-67
2022/01/11 04:31:59;;;;;;;22.13;10.48;;;;;;;;;;6187633;28;20248;-68
2022/01/11 04:35:00;;;;;;;26.70;10.60;;;;;;;;;;6191007;28;20062;-66
2022/01/11 04:38:01;;;;;;;28.45;11.45;;;;;;;;;;6183717;28;20105;-67
2022/01/11 04:41:02;;;;;;;23.33;10.35;;;;;;;;;;6189937;28;20050;-68
2022/01/11 04:44:04;;;;;;;24.90;12.40;;;;;;;;;;6189997;28;20038;-67
2022/01/11 04:47:05;;;;;;;23.25;10.25;;;;;;;;;;6192058;28;20074;-67
2022/01/11 04:50:08;;;;;;;27.02;11.77;;;;;;;;;;6191650;28;20049;-68
2022/01/11 04:53:09;;;;;;;29.95;12.05;;;;;;;;;;6195471;28;20050;-67
2022/01/11 04:56:10;;;;;;;33.60;12.35;;;;;;;;;;6191717;28;20084;-67
2022/01/11 04:59:11;;;;;;;32.85;12.48;;;;;;;;;;6193663;28;20789;-65
2022/01/11 05:02:11;;;;;;;35.30;11.68;;;;;;;;;;6191083;28;20092;-66
2022/01/11 05:05:12;;;;;;;22.42;9.70;;;;;;;;;;6191128;28;20073;-65
2022/01/11 05:08:14;;;;;;;18.30;7.43;;;;;;;;;;6191925;28;20115;-66
2022/01/11 05:11:15;;;;;;;20.58;7.93;;;;;;;;;;6193255;28;20047;-64
2022/01/11 05:14:16;;;;;;;17.63;7.38;;;;;;;;;;6194499;28;20054;-67
2022/01/11 05:17:17;;;;;;;19.48;7.63;;;;;;;;;;6190820;28;20468;-64
2022/01/11 05:20:17;;;;;;;19.05;8.20;;;;;;;;;;6189390;28;20480;-67
2022/01/11 05:23:18;;;;;;;19.15;8.18;;;;;;;;;;6189214;28;20128;-66
2022/01/11 05:26:19;;;;;;;18.83;8.38;;;;;;;;;;6188084;28;20060;-65
2022/01/11 05:29:20;;;;;;;23.65;9.48;;;;;;;;;;6191453;28;20050;-66
2022/01/11 05:32:21;;;;;;;28.17;10.40;;;;;;;;;;6190615;28;20049;-67
2022/01/11 05:35:23;;;;;;;26.83;11.48;;;;;;;;;;6193193;28;20140;-66
2022/01/11 05:38:24;;;;;;;28.48;10.73;;;;;;;;;;6194018;28;20066;-65
2022/01/11 05:41:25;;;;;;;23.88;10.20;;;;;;;;;;6196237;28;20248;-67
2022/01/11 05:44:25;;;;;;;24.35;10.32;;;;;;;;;;6192753;28;20049;-66
2022/01/11 05:47:26;;;;;;;28.85;10.75;;;;;;;;;;6190989;28;20058;-65
2022/01/11 05:50:26;;;;;;;29.30;11.27;;;;;;;;;;6194917;28;20046;-66
2022/01/11 05:53:27;;;;;;;30.95;12.45;;;;;;;;;;6193794;28;20505;-65
2022/01/11 05:56:28;;;;;;;36.75;12.88;;;;;;;;;;6195714;28;20847;-68
2022/01/11 05:59:29;;;;;;;39.15;15.05;;;;;;;;;;6198317;28;20777;-68
2022/01/11 06:02:29;;;;;;;35.10;12.90;;;;;;;;;;6198240;28;20057;-63
2022/01/11 06:05:34;;;;;;;28.88;11.10;;;;;;;;;;6193990;28;20050;-63
2022/01/11 06:08:35;;;;;;;29.35;12.73;;;;;;;;;;6192560;28;20046;-64
2022/01/11 06:11:36;;;;;;;28.58;12.48;;;;;;;;;;6195806;28;20061;-65
2022/01/11 06:14:37;;;;;;;33.92;13.48;;;;;;;;;;6194218;28;20053;-64
2022/01/11 06:17:38;;;;;;;76.43;22.48;;;;;;;;;;6193409;28;20104;-65
2022/01/11 06:20:39;;;;;;;75.07;22.67;;;;;;;;;;6200701;28;20073;-63
2022/01/11 06:23:40;;;;;;;74.90;25.05;;;;;;;;;;6196219;28;20041;-65
2022/01/11 06:26:42;;;;;;;57.67;21.45;;;;;;;;;;6197454;28;20496;-67
2022/01/11 06:29:43;;;;;;;42.38;17.70;;;;;;;;;;6194107;28;20521;-64
2022/01/11 06:32:45;;;;;;;43.10;18.00;;;;;;;;;;6197516;28;20057;-64
2022/01/11 06:35:45;;;;;;;43.90;17.98;;;;;;;;;;6193819;28;20136;-59
2022/01/11 06:38:47;;;;;;;65.25;25.50;;;;;;;;;;6194221;28;20422;-59
2022/01/11 06:41:48;;;;;;;59.92;22.38;;;;;;;;;;6193711;28;20133;-63
2022/01/11 06:44:48;;;;;;;51.33;20.35;;;;;;;;;;6194047;28;20065;-62
2022/01/11 06:47:49;;;;;;;51.95;21.20;;;;;;;;;;6189610;28;20061;-64
2022/01/11 06:50:50;;;;;;;53.13;21.17;;;;;;;;;;6195222;28;20050;-63
2022/01/11 06:53:51;;;;;;;46.13;18.02;;;;;;;;;;6198179;28;20150;-63
2022/01/11 06:56:52;;;;;;;46.88;18.33;;;;;;;;;;6193468;28;20046;-63
2022/01/11 06:59:53;;;;;;;51.80;19.33;;;;;;;;;;6198504;28;20061;-63
2022/01/11 07:02:53;;;;;;;68.88;23.77;;;;;;;;;;6197092;28;20449;-62
2022/01/11 07:05:54;;;;;;;59.55;21.40;;;;;;;;;;6192667;28;20045;-63
2022/01/11 07:08:55;;;;;;;61.30;22.25;;;;;;;;;;6194741;28;20137;-63
2022/01/11 07:11:56;;;;;;;76.60;29.92;;;;;;;;;;6192042;28;20066;-63
2022/01/11 07:14:56;;;;;;;63.60;24.52;;;;;;;;;;6194925;28;20058;-64
2022/01/11 07:17:57;;;;;;;75.60;30.55;;;;;;;;;;6190193;28;20056;-62
2022/01/11 07:20:58;;;;;;;62.67;24.73;;;;;;;;;;6193136;28;20467;-64
2022/01/11 07:23:59;;;;;;;59.58;25.15;;;;;;;;;;6194541;28;20073;-64
2022/01/11 07:26:59;;;;;;;64.22;25.05;;;;;;;;;;6189053;28;20831;-64
2022/01/11 07:30:06;;;;;;;75.28;27.42;;;;;;;;;;6190258;28;20146;-64
2022/01/11 07:33:07;;;;;;;79.93;28.45;;;;;;;;;;6191501;28;20108;-64
2022/01/11 07:36:08;;;;;;;66.53;27.50;;;;;;;;;;6209035;28;20133;-64
2022/01/11 07:39:10;;;;;;;73.68;28.52;;;;;;;;;;6211425;28;20129;-64
2022/01/11 07:42:10;;;;;;;68.63;30.70;;;;;;;;;;6209701;28;20049;-64
2022/01/11 07:45:11;;;;;;;69.28;28.77;;;;;;;;;;6206916;28;20038;-64
2022/01/11 07:48:12;;;;;;;70.22;29.17;;;;;;;;;;6208391;28;20046;-64
2022/01/11 07:51:14;;;;;;;71.75;29.90;;;;;;;;;;6207742;28;20054;-64
2022/01/11 07:54:15;;;;;;;73.03;28.80;;;;;;;;;;6205822;28;20073;-64
2022/01/11 07:57:16;;;;;;;73.25;31.48;;;;;;;;;;6208070;28;20054;-64
2022/01/11 08:00:17;;;;;;;79.97;32.28;;;;;;;;;;6208668;28;20045;-64
2022/01/11 08:03:18;;;;;;;76.97;31.33;;;;;;;;;;6208530;28;20045;-64
2022/01/11 08:06:19;;;;;;;74.22;30.95;;;;;;;;;;6207373;28;20092;-65
2022/01/11 08:09:19;;;;;;;80.75;33.53;;;;;;;;;;6208041;28;20127;-64
2022/01/11 08:12:20;;;;;;;83.00;32.72;;;;;;;;;;6208660;28;20054;-64
2022/01/11 08:15:20;;;;;;;89.53;33.92;;;;;;;;;;6205130;28;20060;-64
2022/01/11 08:18:21;;;;;;;80.05;33.03;;;;;;;;;;6206930;28;20523;-64
2022/01/11 08:21:22;;;;;;;95.18;36.17;;;;;;;;;;6210215;28;20393;-64
2022/01/11 08:24:24;;;;;;;93.50;37.08;;;;;;;;;;6206649;28;20058;-64
2022/01/11 08:27:24;;;;;;;94.80;42.53;;;;;;;;;;6208781;28;20080;-64
2022/01/11 08:30:27;;;;;;;97.55;40.55;;;;;;;;;;6211609;28;20058;-65
2022/01/11 08:33:27;;;;;;;94.95;36.53;;;;;;;;;;6212299;28;20508;-64
2022/01/11 08:36:28;;;;;;;99.03;39.78;;;;;;;;;;6214461;28;20054;-65
2022/01/11 08:39:29;;;;;;;108.00;44.00;;;;;;;;;;6211437;28;20089;-64
2022/01/11 08:42:30;;;;;;;111.72;43.95;;;;;;;;;;6212702;28;20053;-64
2022/01/11 08:45:32;;;;;;;100.20;40.00;;;;;;;;;;6211616;28;20096;-64
2022/01/11 08:48:33;;;;;;;89.30;34.45;;;;;;;;;;6210035;28;20081;-64
2022/01/11 08:51:33;;;;;;;95.22;36.63;;;;;;;;;;6214812;28;20045;-64
2022/01/11 08:54:34;;;;;;;83.32;33.88;;;;;;;;;;6213007;28;20041;-64
2022/01/11 08:57:35;;;;;;;91.90;34.95;;;;;;;;;;6212610;28;20046;-64
2022/01/11 09:00:36;;;;;;;89.28;33.38;;;;;;;;;;6214662;28;20124;-64
2022/01/11 09:03:37;;;;;;;92.85;36.83;;;;;;;;;;6210331;28;20046;-64
2022/01/11 09:06:38;;;;;;;97.20;36.60;;;;;;;;;;6207642;28;20135;-64
2022/01/11 09:09:38;;;;;;;98.80;40.22;;;;;;;;;;6208751;28;20041;-63
2022/01/11 09:12:40;;;;;;;102.07;42.13;;;;;;;;;;6210683;28;20070;-64
2022/01/11 09:15:40;;;;;;;99.65;40.58;;;;;;;;;;6217732;28;20038;-64
2022/01/11 09:18:41;;;;;;;102.72;41.53;;;;;;;;;;6217704;28;20057;-64
2022/01/11 09:21:42;;;;;;;106.07;41.28;;;;;;;;;;6216866;28;20138;-64
2022/01/11 09:24:43;;;;;;;92.57;38.38;;;;;;;;;;6212474;28;20064;-65
2022/01/11 09:27:44;;;;;;;96.60;36.10;;;;;;;;;;6211367;28;21825;-64
2022/01/11 09:30:44;;;;;;;88.68;34.47;;;;;;;;;;6212060;28;20050;-64
2022/01/11 09:33:45;;;;;;;105.00;37.85;;;;;;;;;;6214423;28;20049;-64
2022/01/11 09:36:46;;;;;;;95.95;36.33;;;;;;;;;;6214260;28;20062;-64
2022/01/11 09:39:48;;;;;;;78.28;32.47;;;;;;;;;;6217195;28;20088;-64
2022/01/11 09:42:49;;;;;;;86.00;33.63;;;;;;;;;;6217368;28;20512;-65
2022/01/11 09:45:51;;;;;;;79.18;33.55;;;;;;;;;;6218569;28;20057;-65
2022/01/11 09:48:52;;;;;;;;;;;;;;;;;;6214669;28;20042;-66
2022/01/11 09:51:53;;;;;;;80.32;30.13;;;;;;;;;;6215972;28;20783;-65
2022/01/11 09:54:54;;;;;;;91.97;34.45;;;;;;;;;;6216185;28;20622;-64
2022/01/11 09:57:54;;;;;;;83.80;34.25;;;;;;;;;;6207638;28;20165;-65
2022/01/11 10:00:57;;;;;;;88.47;34.97;;;;;;;;;;6210166;28;20056;-64
2022/01/11 10:04:04;;;;;;;81.03;33.80;;;;;;;;;;6207436;28;20065;-65
2022/01/11 10:07:08;;;;;;;82.30;33.58;;;;;;;;;;6211277;28;20053;-65
2022/01/11 10:10:15;;;;;;;79.65;30.63;;;;;;;;;;6209921;28;20045;-63
2022/01/11 10:13:39;;;;;;;86.97;34.58;;;;;;;;;;6208424;28;20192;-63
2022/01/11 10:16:40;;;;;;;75.18;30.77;;;;;;;;;;6211839;28;20050;-63
2022/01/11 10:19:43;;;;;;;80.40;31.77;;;;;;;;;;6207950;28;20041;-66
2022/01/11 10:22:51;;;;;;;68.88;26.85;;;;;;;;;;6209626;28;20081;-64
2022/01/11 10:25:52;;;;;;;71.53;27.83;;;;;;;;;;6210457;28;20088;-64
2022/01/11 10:28:55;;;;;;;72.10;27.48;;;;;;;;;;6209497;28;20049;-64
2022/01/11 10:31:58;;;;;;;66.15;28.02;;;;;;;;;;6210740;28;20188;-62
2022/01/11 10:35:12;;;;;;;70.53;27.52;;;;;;;;;;6207283;28;20052;-63
2022/01/11 10:38:24;;;;;;;64.32;25.33;;;;;;;;;;6206407;28;20730;-63
2022/01/11 10:41:44;;;;;;;58.83;23.58;;;;;;;;;;6209396;28;20081;-66
2022/01/11 10:44:58;;;;;;;54.95;22.98;;;;;;;;;;6211122;28;20502;-64
2022/01/11 10:48:08;;;;;;;57.53;23.17;;;;;;;;;;6204254;28;20050;-63
2022/01/11 10:51:13;;;;;;;66.85;24.45;;;;;;;;;;6206642;28;20038;-65
2022/01/11 10:54:24;;;;;;;60.40;25.70;;;;;;;;;;6206532;28;20121;-65
2022/01/11 10:57:29;;;;;;;56.92;25.08;;;;;;;;;;6210209;28;20141;-63
2022/01/11 11:00:41;;;;;;;73.60;27.38;;;;;;;;;;6209567;28;20784;-64
2022/01/11 11:03:43;;;;;;;62.40;24.77;;;;;;;;;;6204089;28;20444;-64
2022/01/11 11:06:43;;;;;;;61.53;26.63;;;;;;;;;;6208738;28;20045;-62
2022/01/11 11:09:52;;;;;;;57.38;22.63;;;;;;;;;;6208321;28;20050;-65
2022/01/11 11:12:55;;;;;;;63.17;24.83;;;;;;;;;;6207657;28;20038;-61
2022/01/11 11:16:20;;;;;;;54.05;22.42;;;;;;;;;;6207111;28;20042;-63
2022/01/11 11:19:23;;;;;;;65.35;25.13;;;;;;;;;;6204447;28;20045;-63
2022/01/11 11:22:25;;;;;;;68.32;25.33;;;;;;;;;;6213187;28;20034;-63
2022/01/11 11:25:27;;;;;;;52.95;23.33;;;;;;;;;;6208934;28;20042;-67
2022/01/11 11:28:28;;;;;;;57.28;21.90;;;;;;;;;;6207919;28;20102;-67
2022/01/11 11:31:29;;;;;;;57.83;23.23;;;;;;;;;;6195676;28;20233;-66
2022/01/11 11:34:30;;;;;;;62.38;25.45;;;;;;;;;;6187201;28;20089;-66
2022/01/11 11:37:35;;;;;;;65.82;26.65;;;;;;;;;;6187401;28;20041;-65
2022/01/11 11:40:36;;;;;;;58.63;22.17;;;;;;;;;;6187992;28;20146;-66
2022/01/11 11:43:38;;;;;;;58.50;24.90;;;;;;;;;;6193951;28;20042;-66
2022/01/11 11:46:42;;;;;;;54.90;22.77;;;;;;;;;;6194344;28;20752;-65
2022/01/11 11:49:52;;;;;;;60.92;25.73;;;;;;;;;;6198289;28;20085;-65
2022/01/11 11:52:53;;;;;;;63.95;26.30;;;;;;;;;;6194315;28;20073;-65
2022/01/11 11:56:17;;;;;;;79.70;29.23;;;;;;;;;;6195325;28;20599;-66
2022/01/11 11:59:18;;;;;;;71.45;27.42;;;;;;;;;;6193092;28;20122;-66
2022/01/11 12:02:40;;;;;;;104.70;30.17;;;;;;;;;;6190488;28;20519;-65
2022/01/11 12:05:45;;;;;;;70.57;27.70;;;;;;;;;;6191411;28;20169;-65
2022/01/11 12:08:59;;;;;;;60.30;26.90;;;;;;;;;;6190849;28;20676;-66
2022/01/11 12:12:00;;;;;;;74.55;28.75;;;;;;;;;;6190819;28;20069;-65
2022/01/11 12:15:21;;;;;;;76.40;29.50;;;;;;;;;;6195204;28;20054;-66
2022/01/11 12:18:21;;;;;;;72.78;28.67;;;;;;;;;;6191761;28;20506;-66
2022/01/11 12:21:24;;;;;;;79.80;30.13;;;;;;;;;;6191979;28;20046;-66
2022/01/11 12:24:36;;;;;;;90.43;31.25;;;;;;;;;;6192401;28;20072;-66
2022/01/11 12:28:00;;;;;;;68.30;27.53;;;;;;;;;;6191771;28;21276;-66
2022/01/11 12:31:22;;;;;;;68.55;26.60;;;;;;;;;;6187946;28;20368;-66
2022/01/11 12:34:41;;;;;;;70.25;26.58;;;;;;;;;;6190370;28;20507;-66
2022/01/11 12:37:45;;;;;;;73.55;28.25;;;;;;;;;;6192716;28;20123;-66
2022/01/11 12:40:47;;;;;;;71.25;28.35;;;;;;;;;;6188308;28;20053;-66
2022/01/11 12:43:56;;;;;;;78.13;29.50;;;;;;;;;;6188280;28;20133;-65
2022/01/11 12:47:07;;;;;;;60.60;25.67;;;;;;;;;;6186200;28;20344;-67
2022/01/11 12:50:10;;;;;;;71.13;26.50;;;;;;;;;;6189119;28;20493;-66
2022/01/11 12:53:11;;;;;;;73.82;29.80;;;;;;;;;;6192781;28;20046;-64
2022/01/11 12:56:12;;;;;;;70.45;28.00;;;;;;;;;;6195838;28;20132;-65
2022/01/11 12:59:13;;;;;;;65.30;26.80;;;;;;;;;;6197324;28;20141;-65
2022/01/11 13:02:23;;;;;;;70.85;28.02;;;;;;;;;;6188211;28;20097;-65
2022/01/11 13:05:27;;;;;;;62.83;24.98;;;;;;;;;;6186199;28;20060;-66
2022/01/11 13:08:28;;;;;;;66.93;27.02;;;;;;;;;;6185851;28;20158;-67
2022/01/11 13:11:29;;;;;;;70.38;27.65;;;;;;;;;;6185123;28;20055;-66
2022/01/11 13:14:32;;;;;;;68.80;27.27;;;;;;;;;;6189379;28;20066;-66
2022/01/11 13:18:15;;;;;;;66.18;26.38;;;;;;;;;;6187608;28;20533;-65
2022/01/11 13:21:19;;;;;;;;;;;;;;;;;;6180389;28;20078;-65
2022/01/11 13:27:21;;;;;;;74.55;27.70;;;;;;;;;;6187643;28;20148;-67
2022/01/11 13:30:34;;;;;;;66.72;26.05;;;;;;;;;;6188443;28;20061;-65
2022/01/11 13:33:39;;;;;;;61.97;24.45;;;;;;;;;;6190125;28;20346;-65
2022/01/11 13:36:45;;;;;;;55.22;24.38;;;;;;;;;;6189878;28;20057;-66
2022/01/11 13:39:48;;;;;;;72.43;24.83;;;;;;;;;;6196147;28;20548;-65
2022/01/11 13:43:00;;;;;;;76.43;27.85;;;;;;;;;;6194004;28;20081;-65
2022/01/11 13:46:01;;;;;;;60.58;23.13;;;;;;;;;;6188430;28;20500;-65
2022/01/11 13:49:01;;;;;;;61.15;24.40;;;;;;;;;;6187505;28;20058;-66
2022/01/11 13:52:15;;;;;;;65.40;23.48;;;;;;;;;;6186882;28;20050;-70
2022/01/11 13:55:16;;;;;;;62.67;25.98;;;;;;;;;;6186180;28;20092;-67
2022/01/11 13:58:18;;;;;;;67.57;27.70;;;;;;;;;;6203078;28;20085;-67
2022/01/11 14:01:20;;;;;;;72.47;28.97;;;;;;;;;;6188601;28;20062;-65
2022/01/11 14:04:21;;;;;;;71.32;29.40;;;;;;;;;;6193321;28;20464;-58
2022/01/11 14:07:30;;;;;;;82.72;30.48;;;;;;;;;;6194346;28;20050;-61
2022/01/11 14:10:37;;;;;;;68.88;29.63;;;;;;;;;;6191881;28;20057;-67
2022/01/11 14:13:41;;;;;;;76.50;29.23;;;;;;;;;;6195853;28;20054;-68
2022/01/11 14:16:42;;;;;;;69.45;29.80;;;;;;;;;;6197218;28;20394;-65
2022/01/11 14:36:48;;;;;;;113.40;41.05;;;;;;;;;;6194391;28;20449;-66
2022/01/11 14:39:49;;;;;;;157.18;51.25;;;;;;;;;;6194725;28;20137;-65
2022/01/11 14:42:50;;;;;;;149.38;51.20;;;;;;;;;;6192911;28;20496;-66
2022/01/11 14:45:53;;;;;;;137.70;48.90;;;;;;;;;;6190203;28;20145;-66
2022/01/11 14:49:06;;;;;;;102.85;39.38;;;;;;;;;;6192405;28;20049;-66
2022/01/11 14:52:20;;;;;;;108.25;43.70;;;;;;;;;;6195290;28;20176;-65
2022/01/11 14:55:22;;;;;;;100.10;38.20;;;;;;;;;;6190765;28;20555;-66
2022/01/11 14:58:34;;;;;;;93.43;35.15;;;;;;;;;;6194310;28;20060;-71
2022/01/11 15:01:52;;;;;;;118.82;43.08;;;;;;;;;;6193867;28;20050;-65
2022/01/11 15:04:53;;;;;;;123.63;45.03;;;;;;;;;;6197469;28;20093;-65
2022/01/11 15:07:55;;;;;;;134.35;44.60;;;;;;;;;;6197481;28;20188;-65
2022/01/11 15:11:24;;;;;;;125.65;47.45;;;;;;;;;;6195349;28;20053;-64
2022/01/11 15:14:29;;;;;;;133.80;47.20;;;;;;;;;;6195323;28;20104;-67
2022/01/11 15:17:30;;;;;;;135.63;47.50;;;;;;;;;;6198966;28;20120;-67
2022/01/11 15:20:30;;;;;;;156.68;51.40;;;;;;;;;;6197655;28;21943;-66
2022/01/11 15:23:32;;;;;;;203.35;65.43;;;;;;;;;;6194098;28;20053;-65
2022/01/11 15:26:43;;;;;;;251.20;77.23;;;;;;;;;;6194268;28;20532;-63
2022/01/11 15:29:46;;;;;;;228.52;73.07;;;;;;;;;;6199058;28;20417;-65
2022/01/11 15:32:46;;;;;;;213.00;65.90;;;;;;;;;;6195338;28;20539;-65
2022/01/11 15:35:47;;;;;;;192.25;68.55;;;;;;;;;;6194979;28;20062;-65
2022/01/11 15:38:48;;;;;;;163.48;62.42;;;;;;;;;;6194520;28;20137;-65
2022/01/11 15:41:53;;;;;;;156.52;59.20;;;;;;;;;;6189821;28;20080;-67
2022/01/11 15:44:54;;;;;;;146.45;55.08;;;;;;;;;;6200804;28;20056;-66
2022/01/11 15:47:54;;;;;;;152.30;56.88;;;;;;;;;;6199006;28;20757;-64
2022/01/11 15:50:55;;;;;;;161.10;60.38;;;;;;;;;;6199928;28;20193;-66
2022/01/11 15:53:58;;;;;;;165.18;60.58;;;;;;;;;;6197704;28;20046;-66
2022/01/11 15:56:59;;;;;;;143.73;55.72;;;;;;;;;;6189298;28;20081;-63
2022/01/11 15:59:59;;;;;;;128.20;49.53;;;;;;;;;;6196745;28;20046;-64
2022/01/11 16:03:00;;;;;;;117.57;46.55;;;;;;;;;;6192644;28;20046;-68
2022/01/11 16:06:02;;;;;;;119.13;47.83;;;;;;;;;;6199880;28;20115;-67
2022/01/11 16:09:03;;;;;;;107.30;41.85;;;;;;;;;;6196843;28;20049;-67
2022/01/11 16:12:04;;;;;;;110.50;43.53;;;;;;;;;;6194320;28;20047;-64
2022/01/11 16:15:05;;;;;;;139.57;46.95;;;;;;;;;;6192182;28;20054;-66
2022/01/11 16:18:06;;;;;;;132.10;44.65;;;;;;;;;;6195144;28;21144;-67
2022/01/11 16:21:07;;;;;;;199.32;58.38;;;;;;;;;;6190668;28;20093;-67
2022/01/11 16:24:08;;;;;;;201.60;60.17;;;;;;;;;;6193762;28;20416;-64
2022/01/11 16:27:08;;;;;;;211.73;62.63;;;;;;;;;;6193364;28;20116;-64
2022/01/11 16:30:37;;;;;;;198.20;57.13;;;;;;;;;;6195496;28;21562;-64
2022/01/11 16:33:38;;;;;;;183.25;56.78;;;;;;;;;;6187767;28;20052;-64
2022/01/11 16:36:45;;;;;;;172.25;54.13;;;;;;;;;;6192602;28;20047;-64
2022/01/11 16:39:56;;;;;;;148.63;48.53;;;;;;;;;;6191921;28;20058;-64
2022/01/11 16:42:57;;;;;;;120.73;44.70;;;;;;;;;;6195769;28;20057;-63
2022/01/11 16:46:11;;;;;;;128.68;46.05;;;;;;;;;;6187217;28;20129;-64
2022/01/11 16:49:12;;;;;;;143.30;48.92;;;;;;;;;;6188508;28;20416;-63
2022/01/11 16:52:13;;;;;;;151.77;47.45;;;;;;;;;;6192966;28;20547;-62
2022/01/11 16:55:15;;;;;;;117.85;40.88;;;;;;;;;;6188047;28;20081;-65
2022/01/11 16:58:16;;;;;;;120.90;44.20;;;;;;;;;;6188977;28;20056;-65
2022/01/11 17:01:17;;;;;;;112.57;40.50;;;;;;;;;;6190193;28;20049;-65
2022/01/11 17:04:18;;;;;;;120.63;44.33;;;;;;;;;;6192276;28;20255;-64
2022/01/11 17:07:19;;;;;;;122.25;45.72;;;;;;;;;;6191737;28;20097;-64
2022/01/11 17:10:20;;;;;;;141.77;49.03;;;;;;;;;;6198888;28;20046;-64
2022/01/11 17:13:21;;;;;;;110.27;41.53;;;;;;;;;;6193272;28;20149;-65
2022/01/11 17:16:22;;;;;;;145.35;49.22;;;;;;;;;;6189467;28;20062;-67
2022/01/11 17:19:23;;;;;;;112.35;42.55;;;;;;;;;;6190198;28;20054;-65
2022/01/11 17:22:23;;;;;;;128.77;47.88;;;;;;;;;;6193731;28;20505;-63
2022/01/11 17:25:26;;;;;;;113.53;44.00;;;;;;;;;;6186578;28;20047;-64
2022/01/11 17:28:27;;;;;;;108.35;41.42;;;;;;;;;;6194120;28;20061;-66
2022/01/11 17:31:28;;;;;;;111.78;42.70;;;;;;;;;;6201410;28;20045;-64
2022/01/11 17:34:29;;;;;;;99.95;38.92;;;;;;;;;;6195159;28;20042;-64
2022/01/11 17:37:30;;;;;;;107.28;39.85;;;;;;;;;;6195990;28;20585;-65
2022/01/11 17:40:31;;;;;;;114.05;45.33;;;;;;;;;;6197004;28;20052;-66
2022/01/11 17:43:33;;;;;;;117.03;41.78;;;;;;;;;;6198425;28;20566;-66
2022/01/11 17:46:34;;;;;;;118.15;43.95;;;;;;;;;;6193192;28;20054;-66
2022/01/11 17:49:35;;;;;;;145.57;49.95;;;;;;;;;;6192319;28;20066;-66
2022/01/11 17:52:35;;;;;;;128.90;45.83;;;;;;;;;;6198859;28;20042;-66
2022/01/11 17:55:41;;;;;;;132.02;48.00;;;;;;;;;;6191490;28;20046;-66
2022/01/11 17:58:42;;;;;;;134.35;47.72;;;;;;;;;;6196099;28;20054;-66
2022/01/11 18:01:43;;;;;;;137.07;49.42;;;;;;;;;;6199060;28;20998;-63
2022/01/11 18:04:43;;;;;;;139.10;50.67;;;;;;;;;;6196044;28;20062;-65
2022/01/11 18:07:45;;;;;;;148.23;51.80;;;;;;;;;;6191778;28;20488;-66